Tallahassee, Florida
Current Conditions -  °F | °C
As of 10:53 AM on Friday 31 Oct 2014 (Local Time) from KTLH Reporting Station
Clear Clear  
Wind Chill: 18°   Ceiling: Unl
Heat Index: 18°   Visibility: 10mi
Dew Point:   Wind: 7mph
Humidity: 46%   Direction: 330°NNW
Pressure: 29.97"   Gusts: NA
Location:  30.44°N, 84.28°W
Report Text: KTLH 311453Z 33006KT 10SM CLR 18/06 A2997 RMK AO2 SLP146 T01780061 50006 $
Loading
Personal Weather Stations






























Interactive Weather Map
Tropical Storm Tracking
New forecast layout! Learn more

10-Day Weather Forecast

Advertisements
Track Severe Weather on mobile